Time;durP1;ratioP1;P1;durP2;ratioP2;P2;SDS_P1;SDS_P2;PMS_P1;PMS_P2;Temp;Humidity;BMP_temperature;BMP_pressure;BME280_temperature;BME280_humidity;BME280_pressure;Samples;Min_cycle;Max_cycle;Signal;HPM_P1;HPM_P2
2022/12/05 00:01:28;;;;;;;32.65;21.80;;;4.70;99.90;;;;;;4900522;28;89604;-32
2022/12/05 00:03:56;;;;;;;30.17;25.65;;;4.70;99.90;;;;;;4900579;28;89174;-30
2022/12/05 00:06:23;;;;;;;38.17;27.13;;;4.70;99.90;;;;;;4900472;28;90376;-33
2022/12/05 00:08:48;;;;;;;38.92;25.30;;;4.70;99.90;;;;;;4901297;28;89812;-30
2022/12/05 00:11:20;;;;;;;47.17;28.67;;;4.70;99.90;;;;;;4901138;28;89506;-33
2022/12/05 00:13:47;;;;;;;39.17;26.65;;;4.70;99.90;;;;;;4901027;28;88055;-31
2022/12/05 00:16:15;;;;;;;39.10;27.60;;;4.70;99.90;;;;;;4900731;28;90500;-32
2022/12/05 00:18:41;;;;;;;36.53;25.63;;;4.70;99.90;;;;;;4899455;28;90269;-32
2022/12/05 00:21:11;;;;;;;38.90;25.92;;;4.70;99.90;;;;;;4900574;28;91096;-30
2022/12/05 00:23:37;;;;;;;31.38;20.10;;;4.80;99.90;;;;;;4901319;28;88084;-31
2022/12/05 00:26:04;;;;;;;36.83;25.75;;;4.70;99.90;;;;;;4900190;28;90915;-32
2022/12/05 00:28:31;;;;;;;41.20;28.15;;;4.70;99.90;;;;;;4900213;28;89551;-31
2022/12/05 00:31:01;;;;;;;43.20;29.40;;;4.70;99.90;;;;;;4900381;28;89061;-31
2022/12/05 00:33:27;;;;;;;36.40;27.20;;;4.70;99.90;;;;;;4900584;28;89620;-33
2022/12/05 00:35:52;;;;;;;38.55;23.75;;;4.70;99.90;;;;;;4900795;28;90154;-34
2022/12/05 00:38:18;;;;;;;43.47;32.00;;;4.70;99.90;;;;;;4900346;28;89624;-34
2022/12/05 00:40:43;;;;;;;37.83;27.60;;;4.70;99.90;;;;;;4899797;28;89765;-32
2022/12/05 00:43:09;;;;;;;38.30;28.05;;;4.70;99.90;;;;;;4899813;28;89848;-31
2022/12/05 00:45:35;;;;;;;33.80;25.17;;;4.70;99.90;;;;;;4900267;28;90943;-32
2022/12/05 00:48:00;;;;;;;38.83;27.88;;;4.80;99.90;;;;;;4900667;28;89375;-30
2022/12/05 00:50:26;;;;;;;44.67;28.52;;;4.80;99.90;;;;;;4900517;28;89632;-31
2022/12/05 00:52:51;;;;;;;44.55;28.88;;;4.70;99.90;;;;;;4900274;28;89115;-32
2022/12/05 00:55:17;;;;;;;44.10;30.90;;;4.80;99.90;;;;;;4901923;28;90082;-31
2022/12/05 00:57:42;;;;;;;41.90;29.48;;;4.80;99.90;;;;;;4904054;28;89546;-31
2022/12/05 01:00:08;;;;;;;37.47;27.10;;;4.80;99.90;;;;;;4903460;28;89731;-31
2022/12/05 01:02:34;;;;;;;33.88;25.02;;;4.80;99.90;;;;;;4903529;28;88683;-31
2022/12/05 01:05:00;;;;;;;47.28;29.15;;;4.80;99.90;;;;;;4917717;28;90301;-31
2022/12/05 01:07:25;;;;;;;42.90;29.98;;;4.80;99.90;;;;;;4902952;28;90719;-34
2022/12/05 01:09:51;;;;;;;39.30;29.67;;;4.80;99.90;;;;;;4903064;28;89973;-33
2022/12/05 01:12:16;;;;;;;39.67;28.50;;;4.80;99.90;;;;;;4903479;28;89466;-33
2022/12/05 01:14:42;;;;;;;43.45;28.95;;;4.80;99.90;;;;;;4903616;28;89291;-31
2022/12/05 01:17:09;;;;;;;41.55;29.00;;;4.80;99.90;;;;;;4903082;28;90519;-31
2022/12/05 01:19:34;;;;;;;42.60;29.75;;;4.90;99.90;;;;;;4903541;28;89888;-34
2022/12/05 01:22:00;;;;;;;40.97;29.02;;;4.80;99.90;;;;;;4917645;28;88081;-32
2022/12/05 01:24:27;;;;;;;43.72;31.05;;;4.90;99.90;;;;;;4903613;28;89988;-33
2022/12/05 01:26:53;;;;;;;35.80;27.92;;;4.80;99.90;;;;;;4903548;28;89286;-33
2022/12/05 01:29:20;;;;;;;42.53;28.20;;;4.80;99.90;;;;;;4902876;28;90017;-32
2022/12/05 01:31:46;;;;;;;45.65;29.58;;;4.80;99.90;;;;;;4902355;28;89672;-31
2022/12/05 01:34:14;;;;;;;42.20;32.08;;;4.80;99.90;;;;;;4903505;28;89275;-31
2022/12/05 01:36:41;;;;;;;43.05;31.67;;;4.90;99.90;;;;;;4902947;28;90924;-30
2022/12/05 01:39:08;;;;;;;44.10;28.88;;;4.90;99.90;;;;;;4902872;28;89150;-31
2022/12/05 01:41:40;;;;;;;43.80;30.15;;;4.90;99.90;;;;;;4902842;28;88654;-32
2022/12/05 01:44:26;;;;;;;46.47;32.88;;;4.80;99.90;;;;;;4902979;28;91216;-34
2022/12/05 01:46:52;;;;;;;47.97;34.97;;;4.90;99.90;;;;;;4902355;28;90014;-32
2022/12/05 01:49:27;;;;;;;44.03;30.58;;;4.90;99.90;;;;;;4903405;28;90371;-31
2022/12/05 01:51:59;;;;;;;47.90;34.03;;;4.90;99.90;;;;;;4903686;28;90019;-31
2022/12/05 01:54:25;;;;;;;41.65;29.77;;;4.80;99.90;;;;;;4902874;28;90169;-30
2022/12/05 01:56:58;;;;;;;53.67;31.52;;;4.90;99.90;;;;;;4901915;28;90672;-31
2022/12/05 01:59:26;;;;;;;43.20;31.75;;;4.90;99.90;;;;;;4902441;28;90447;-32
2022/12/05 02:01:52;;;;;;;39.10;29.63;;;4.90;99.90;;;;;;4902831;28;87734;-32
2022/12/05 02:04:18;;;;;;;46.72;33.13;;;4.90;99.90;;;;;;4903735;28;91831;-31
2022/12/05 02:06:43;;;;;;;53.10;35.85;;;4.90;99.90;;;;;;4901006;28;89763;-33
2022/12/05 02:09:09;;;;;;;48.88;32.65;;;4.80;99.90;;;;;;4902433;28;87634;-32
2022/12/05 02:11:56;;;;;;;47.67;30.45;;;4.80;99.90;;;;;;4903325;28;89833;-31
2022/12/05 02:14:37;;;;;;;58.00;34.05;;;4.90;99.90;;;;;;4903219;28;92003;-33
2022/12/05 02:17:30;;;;;;;56.85;35.75;;;4.90;99.90;;;;;;4903233;28;89570;-31
2022/12/05 02:20:15;;;;;;;46.70;35.08;;;4.90;99.90;;;;;;4901775;28;89888;-31
2022/12/05 02:23:01;;;;;;;52.50;34.70;;;4.90;99.90;;;;;;4901942;28;90166;-33
2022/12/05 02:25:53;;;;;;;49.13;33.65;;;4.90;99.90;;;;;;4902542;28;90329;-30
2022/12/05 02:28:43;;;;;;;50.97;34.47;;;5.00;99.90;;;;;;4903045;28;90010;-32
2022/12/05 02:31:11;;;;;;;50.95;34.28;;;5.00;99.90;;;;;;4901792;28;90181;-32
2022/12/05 02:33:41;;;;;;;53.42;35.55;;;5.10;99.90;;;;;;4902428;28;88693;-32
2022/12/05 02:36:20;;;;;;;54.20;35.05;;;5.00;99.90;;;;;;4901524;28;89942;-33
2022/12/05 02:39:00;;;;;;;51.92;36.75;;;5.10;99.90;;;;;;4899842;28;89323;-34
2022/12/05 02:41:34;;;;;;;56.67;35.17;;;5.10;99.90;;;;;;4901924;28;89664;-32
2022/12/05 02:44:16;;;;;;;49.28;32.22;;;5.10;99.90;;;;;;4916750;28;89091;-33
2022/12/05 02:46:45;;;;;;;53.30;35.85;;;5.10;99.90;;;;;;4901703;28;90061;-32
2022/12/05 02:49:15;;;;;;;54.45;36.97;;;5.10;99.90;;;;;;4901923;28;90289;-32
2022/12/05 02:51:48;;;;;;;51.92;34.78;;;5.10;99.90;;;;;;4901836;28;90511;-31
2022/12/05 02:54:20;;;;;;;52.00;36.47;;;5.20;99.90;;;;;;4901887;28;89680;-31
2022/12/05 02:56:48;;;;;;;55.50;35.67;;;5.10;99.90;;;;;;4901428;28;91104;-31
2022/12/05 02:59:13;;;;;;;55.77;37.83;;;5.20;99.90;;;;;;4901953;28;89675;-31
2022/12/05 03:01:39;;;;;;;55.47;36.97;;;5.20;99.90;;;;;;4901697;28;89923;-33
2022/12/05 03:04:06;;;;;;;48.47;34.92;;;5.20;99.90;;;;;;4901730;28;89773;-32
2022/12/05 03:06:44;;;;;;;59.20;33.55;;;5.20;99.90;;;;;;4901720;28;90259;-34
2022/12/05 03:09:26;;;;;;;58.38;35.72;;;5.20;99.90;;;;;;4901382;28;89712;-32
2022/12/05 03:12:01;;;;;;;55.17;36.97;;;5.30;99.90;;;;;;4915937;28;90123;-33
2022/12/05 03:14:35;;;;;;;56.17;38.10;;;5.20;99.90;;;;;;4901052;28;89848;-33
2022/12/05 03:17:07;;;;;;;57.88;37.30;;;5.10;99.90;;;;;;4901429;28;89956;-32
2022/12/05 03:20:05;;;;;;;56.50;36.60;;;5.20;99.90;;;;;;4901579;28;90732;-31
2022/12/05 03:22:50;;;;;;;50.27;34.57;;;5.10;99.90;;;;;;4900841;28;89752;-32
2022/12/05 03:25:16;;;;;;;57.13;35.60;;;5.10;99.90;;;;;;4901669;28;88270;-31
2022/12/05 03:28:19;;;;;;;49.00;33.85;;;5.20;99.90;;;;;;4901166;28;90285;-34
2022/12/05 03:30:47;;;;;;;51.95;35.92;;;5.20;99.90;;;;;;4901457;28;89380;-32
2022/12/05 03:33:34;;;;;;;56.17;33.33;;;5.10;99.90;;;;;;4900814;28;90531;-31
2022/12/05 03:36:13;;;;;;;44.15;31.40;;;5.20;99.90;;;;;;4901242;28;88360;-34
2022/12/05 03:38:45;;;;;;;45.58;31.25;;;5.20;99.90;;;;;;4901094;28;89272;-34
2022/12/05 03:41:34;;;;;;;53.65;32.78;;;5.20;99.90;;;;;;4900742;28;92107;-31
2022/12/05 03:44:23;;;;;;;47.90;34.92;;;5.30;99.90;;;;;;4901352;28;90387;-31
2022/12/05 03:47:13;;;;;;;52.30;35.35;;;5.20;99.90;;;;;;4901089;28;88264;-33
2022/12/05 03:49:50;;;;;;;49.88;32.58;;;5.30;99.90;;;;;;4901173;28;90147;-31
2022/12/05 03:52:26;;;;;;;54.00;35.58;;;5.30;99.90;;;;;;4901058;28;89737;-33
2022/12/05 03:54:56;;;;;;;53.63;34.42;;;5.30;99.90;;;;;;4901055;28;90039;-31
2022/12/05 03:57:26;;;;;;;46.88;35.25;;;5.20;99.90;;;;;;4900752;28;89507;-33
2022/12/05 04:00:17;;;;;;;48.58;33.08;;;5.10;99.90;;;;;;4900657;28;90961;-33
2022/12/05 04:02:46;;;;;;;53.15;34.80;;;5.10;99.90;;;;;;4901018;28;89347;-31
2022/12/05 04:05:23;;;;;;;50.22;30.90;;;5.20;99.90;;;;;;4901015;28;89256;-33
2022/12/05 04:07:56;;;;;;;43.10;32.88;;;5.20;99.90;;;;;;4900839;28;89951;-31
2022/12/05 04:10:27;;;;;;;51.70;33.05;;;5.20;99.90;;;;;;4900860;28;90387;-32
2022/12/05 04:12:55;;;;;;;46.53;31.17;;;5.20;99.90;;;;;;4900654;28;89571;-31
2022/12/05 04:15:26;;;;;;;38.63;26.58;;;5.30;99.90;;;;;;4900585;28;89904;-33
2022/12/05 04:17:57;;;;;;;43.60;29.67;;;5.20;99.90;;;;;;4901201;28;88229;-31
2022/12/05 04:23:25;;;;;;;48.08;28.15;;;5.30;99.90;;;;;;4900458;28;90127;-32
2022/12/05 04:26:10;;;;;;;40.33;25.00;;;5.30;99.90;;;;;;4900502;28;88381;-30
2022/12/05 04:28:38;;;;;;;35.72;27.23;;;5.30;99.90;;;;;;4900605;28;89533;-33
2022/12/05 04:31:13;;;;;;;40.15;25.20;;;5.40;99.90;;;;;;4903899;28;90162;-32
2022/12/05 04:33:59;;;;;;;39.80;26.40;;;5.30;99.90;;;;;;4902828;28;91655;-31
2022/12/05 04:36:30;;;;;;;41.97;28.77;;;5.30;99.90;;;;;;4903304;28;90553;-34
2022/12/05 04:39:01;;;;;;;33.70;25.48;;;5.40;99.90;;;;;;4903728;28;89121;-32
2022/12/05 04:41:35;;;;;;;39.05;26.55;;;5.30;99.90;;;;;;4903613;28;89083;-31
2022/12/05 04:44:07;;;;;;;43.05;27.35;;;5.30;99.90;;;;;;4904396;28;90481;-33
2022/12/05 04:46:34;;;;;;;29.98;23.90;;;5.30;99.90;;;;;;4903475;28;90107;-31
2022/12/05 04:49:03;;;;;;;38.97;26.38;;;5.40;99.90;;;;;;4919096;28;89088;-33
2022/12/05 04:51:33;;;;;;;38.85;26.38;;;5.40;99.90;;;;;;4904455;28;88851;-33
2022/12/05 04:54:13;;;;;;;36.65;27.75;;;5.40;99.90;;;;;;4904827;28;89471;-33
2022/12/05 04:56:42;;;;;;;37.58;24.75;;;5.40;99.90;;;;;;4903400;28;89742;-34
2022/12/05 04:59:09;;;;;;;36.20;25.50;;;5.40;99.90;;;;;;4903876;28;90074;-31
2022/12/05 05:01:47;;;;;;;33.75;25.17;;;5.40;99.90;;;;;;4903464;28;90495;-30
2022/12/05 05:04:13;;;;;;;;;;;5.40;99.90;;;;;;4904015;28;90404;-32
2022/12/05 05:06:39;;;;;;;33.03;23.20;;;5.40;99.90;;;;;;4905306;28;89319;-32
2022/12/05 05:09:05;;;;;;;37.38;25.92;;;5.40;99.90;;;;;;4903779;28;88384;-31
2022/12/05 05:11:33;;;;;;;39.22;26.58;;;5.40;99.90;;;;;;4902432;28;90184;-30
2022/12/05 05:13:59;;;;;;;34.83;23.33;;;5.40;99.90;;;;;;4903805;28;90311;-30
2022/12/05 05:16:33;;;;;;;32.47;25.90;;;5.40;99.90;;;;;;4903902;28;90031;-30
2022/12/05 05:18:59;;;;;;;33.78;24.73;;;5.30;99.90;;;;;;4903574;28;89363;-33
2022/12/05 05:21:26;;;;;;;36.22;26.48;;;5.40;99.90;;;;;;4902543;28;91478;-31
2022/12/05 05:23:53;;;;;;;30.75;23.50;;;5.30;99.90;;;;;;4902246;28;90578;-33
2022/12/05 05:26:19;;;;;;;34.72;23.65;;;5.40;99.90;;;;;;4903064;28;90631;-31
2022/12/05 05:28:45;;;;;;;26.13;20.08;;;5.40;99.90;;;;;;4903963;28;89181;-32
2022/12/05 05:31:12;;;;;;;34.85;24.15;;;5.40;99.90;;;;;;4895961;28;90855;-31
2022/12/05 05:33:38;;;;;;;28.60;22.45;;;5.40;99.90;;;;;;4916713;28;89875;-32
2022/12/05 05:36:09;;;;;;;31.30;22.52;;;5.40;99.90;;;;;;4903054;28;89315;-32
2022/12/05 05:38:46;;;;;;;27.65;20.83;;;5.40;99.90;;;;;;4903109;28;87683;-32
2022/12/05 05:41:17;;;;;;;28.38;20.40;;;5.40;99.90;;;;;;4903402;28;90392;-34
2022/12/05 05:43:44;;;;;;;30.70;23.52;;;5.50;99.90;;;;;;4902692;28;89757;-31
2022/12/05 05:46:10;;;;;;;28.17;23.05;;;5.40;99.90;;;;;;4903489;28;91473;-32
2022/12/05 05:48:36;;;;;;;28.25;19.77;;;5.40;99.90;;;;;;4902115;28;90259;-32
2022/12/05 05:51:04;;;;;;;200.02;144.27;;;5.50;99.90;;;;;;4901778;28;89311;-31
2022/12/05 05:53:30;;;;;;;25.87;19.03;;;5.50;99.90;;;;;;4902096;28;89652;-32
2022/12/05 05:55:56;;;;;;;35.42;23.23;;;5.50;99.90;;;;;;4902538;28;89089;-31
2022/12/05 05:58:22;;;;;;;29.63;23.10;;;5.50;99.90;;;;;;4902846;28;88146;-32
2022/12/05 06:00:47;;;;;;;26.50;19.00;;;5.50;99.90;;;;;;4902727;28;90902;-34
2022/12/05 06:03:13;;;;;;;29.95;22.45;;;5.50;99.90;;;;;;4902661;28;90317;-33
2022/12/05 06:05:38;;;;;;;26.40;19.73;;;5.50;99.90;;;;;;4903103;28;90595;-31
2022/12/05 06:08:04;;;;;;;30.08;21.73;;;5.50;99.90;;;;;;4901461;28;87659;-33
2022/12/05 06:10:30;;;;;;;31.58;22.70;;;5.50;99.90;;;;;;4902248;28;90242;-32
2022/12/05 06:12:56;;;;;;;29.75;19.80;;;5.50;99.90;;;;;;4908857;28;90810;-34
2022/12/05 06:15:22;;;;;;;21.70;19.33;;;5.40;99.90;;;;;;4918604;28;90721;-34
2022/12/05 06:17:48;;;;;;;24.88;19.67;;;5.40;99.90;;;;;;4920045;28;88064;-32
2022/12/05 06:20:14;;;;;;;27.40;20.00;;;5.40;99.90;;;;;;4919396;28;89870;-32
2022/12/05 06:22:39;;;;;;;23.92;17.73;;;5.30;99.90;;;;;;4918114;28;89770;-33
2022/12/05 06:25:06;;;;;;;17.98;15.38;;;5.40;99.90;;;;;;4919242;28;89351;-32
2022/12/05 06:27:32;;;;;;;23.48;17.67;;;5.30;99.90;;;;;;4917481;28;89765;-33
2022/12/05 06:29:58;;;;;;;21.45;14.27;;;5.30;99.90;;;;;;4920265;28;90527;-33
2022/12/05 06:32:24;;;;;;;16.38;14.70;;;5.30;99.90;;;;;;4917764;28;89803;-33
2022/12/05 06:34:50;;;;;;;21.77;15.82;;;5.30;99.90;;;;;;4913354;28;89729;-32
2022/12/05 06:37:16;;;;;;;17.85;15.40;;;5.30;99.90;;;;;;4908597;28;89275;-33
2022/12/05 06:39:41;;;;;;;19.50;14.05;;;5.30;99.90;;;;;;4899853;28;89133;-30
2022/12/05 06:42:07;;;;;;;18.90;16.52;;;5.30;99.90;;;;;;4908237;28;88939;-32
2022/12/05 06:44:32;;;;;;;20.20;14.82;;;5.40;99.90;;;;;;4912423;28;89910;-32
2022/12/05 06:46:58;;;;;;;16.13;14.23;;;5.30;99.90;;;;;;4910669;28;89549;-33
2022/12/05 06:49:25;;;;;;;16.85;14.18;;;5.30;99.90;;;;;;4901117;28;90343;-35
2022/12/05 06:51:52;;;;;;;16.05;14.40;;;5.30;99.90;;;;;;4901238;28;89936;-34
2022/12/05 06:54:18;;;;;;;16.73;14.27;;;5.30;99.90;;;;;;4903010;28;90509;-32
2022/12/05 06:56:44;;;;;;;17.33;14.05;;;5.30;99.90;;;;;;4902389;28;89138;-34
2022/12/05 06:59:09;;;;;;;20.10;15.07;;;5.30;99.90;;;;;;4921967;28;88777;-34
2022/12/05 07:01:37;;;;;;;15.48;12.90;;;5.30;99.90;;;;;;4905478;28;90248;-32
2022/12/05 07:04:19;;;;;;;14.88;13.13;;;5.30;99.90;;;;;;4901916;28;91055;-34
2022/12/05 07:06:44;;;;;;;12.02;10.40;;;5.20;99.90;;;;;;4902153;28;90008;-32
2022/12/05 07:09:11;;;;;;;9.88;9.02;;;5.30;99.90;;;;;;4902719;28;90100;-33
2022/12/05 07:11:37;;;;;;;11.55;10.45;;;5.30;99.90;;;;;;4905934;28;90017;-33
2022/12/05 07:14:04;;;;;;;10.88;9.80;;;5.30;99.90;;;;;;4903354;28;89510;-32
2022/12/05 07:16:30;;;;;;;10.82;8.18;;;5.30;99.90;;;;;;4902214;28;87981;-33
2022/12/05 07:18:56;;;;;;;12.48;10.00;;;5.30;99.90;;;;;;4902277;28;90604;-35
2022/12/05 07:21:22;;;;;;;9.40;8.25;;;5.30;99.90;;;;;;4903939;28;90349;-33
2022/12/05 07:23:51;;;;;;;14.23;7.90;;;5.30;99.90;;;;;;4901629;28;88467;-34
2022/12/05 07:26:22;;;;;;;10.80;8.25;;;5.40;99.90;;;;;;4901622;28;90262;-32
2022/12/05 07:28:49;;;;;;;10.70;9.18;;;5.50;99.90;;;;;;4901108;28;90136;-33
2022/12/05 07:31:19;;;;;;;9.65;8.60;;;5.40;99.90;;;;;;4901990;28;90119;-33
2022/12/05 07:33:45;;;;;;;11.20;9.40;;;5.50;99.90;;;;;;4899645;28;89669;-32
2022/12/05 07:36:14;;;;;;;10.43;7.85;;;5.50;99.90;;;;;;4918089;28;89625;-32
2022/12/05 07:38:40;;;;;;;9.73;8.50;;;5.50;99.90;;;;;;4913628;28;91518;-33
2022/12/05 07:41:28;;;;;;;10.43;8.30;;;5.60;99.90;;;;;;4917845;28;90130;-32
2022/12/05 07:43:56;;;;;;;7.53;6.78;;;5.50;99.90;;;;;;4916878;28;89590;-31
2022/12/05 07:46:22;;;;;;;8.68;7.75;;;5.60;99.90;;;;;;4909986;28;88467;-32
2022/12/05 07:48:48;;;;;;;11.98;9.20;;;5.60;99.90;;;;;;4898837;28;90159;-33
2022/12/05 07:51:13;;;;;;;11.20;7.97;;;5.60;99.90;;;;;;4902756;28;90304;-34
2022/12/05 07:53:43;;;;;;;14.02;10.20;;;5.60;99.90;;;;;;4906031;28;90662;-32
2022/12/05 07:56:13;;;;;;;10.27;8.57;;;5.60;99.90;;;;;;4907886;28;88778;-32
2022/12/05 07:58:39;;;;;;;9.80;8.27;;;5.60;99.90;;;;;;4907597;28;90248;-32
2022/12/05 08:01:06;;;;;;;12.30;8.13;;;5.60;99.90;;;;;;4904716;28;91251;-34
2022/12/05 08:03:32;;;;;;;10.90;8.88;;;5.60;99.90;;;;;;4898465;28;89754;-35
2022/12/05 08:06:08;;;;;;;11.27;9.10;;;5.60;99.90;;;;;;4899490;28;89810;-31
2022/12/05 08:08:34;;;;;;;9.27;8.30;;;5.60;99.90;;;;;;4898868;28;90086;-33
2022/12/05 08:11:05;;;;;;;12.15;10.07;;;5.60;99.90;;;;;;4898301;28;89641;-34
2022/12/05 08:13:32;;;;;;;12.88;8.88;;;5.50;99.90;;;;;;4897769;28;89693;-32
2022/12/05 08:16:03;;;;;;;13.65;9.50;;;5.60;99.90;;;;;;4899308;28;90170;-33
2022/12/05 08:18:28;;;;;;;12.15;9.95;;;5.60;99.90;;;;;;4898897;28;90344;-35
2022/12/05 08:20:54;;;;;;;12.63;11.07;;;5.50;99.90;;;;;;4898302;28;89576;-34
2022/12/05 08:23:19;;;;;;;12.30;11.00;;;5.60;99.90;;;;;;4896613;28;90000;-35
2022/12/05 08:25:45;;;;;;;15.82;10.75;;;5.60;99.90;;;;;;4898248;28;88829;-33
2022/12/05 08:28:11;;;;;;;13.55;10.50;;;5.60;99.90;;;;;;4898195;28;90740;-31
2022/12/05 08:30:36;;;;;;;14.27;9.73;;;5.50;99.90;;;;;;4897954;28;90059;-34
2022/12/05 08:33:02;;;;;;;13.13;11.77;;;5.60;99.90;;;;;;4898139;28;89808;-32
2022/12/05 08:35:28;;;;;;;15.18;9.80;;;5.50;99.90;;;;;;4898115;28;89620;-34
2022/12/05 08:37:53;;;;;;;14.40;9.75;;;5.50;99.90;;;;;;4899069;28;90274;-34
2022/12/05 08:40:19;;;;;;;15.52;10.98;;;5.50;99.90;;;;;;4898373;28;90222;-35
2022/12/05 08:42:45;;;;;;;17.90;11.23;;;5.50;99.90;;;;;;4897634;28;90539;-32
2022/12/05 08:45:10;;;;;;;13.70;10.90;;;5.40;99.90;;;;;;4897747;28;88339;-32
2022/12/05 08:47:36;;;;;;;16.77;12.02;;;5.50;99.90;;;;;;4897866;28;90401;-33
2022/12/05 08:50:02;;;;;;;12.88;10.63;;;5.50;99.90;;;;;;4898096;28;90592;-34
2022/12/05 08:52:27;;;;;;;13.75;11.52;;;5.50;99.90;;;;;;4897527;28;89513;-32
2022/12/05 08:54:53;;;;;;;15.70;11.18;;;5.50;99.90;;;;;;4897391;28;88465;-32
2022/12/05 08:57:19;;;;;;;9.23;8.10;;;5.50;99.90;;;;;;4897250;28;91903;-32
2022/12/05 08:59:44;;;;;;;13.63;10.60;;;5.50;99.90;;;;;;4906200;28;89439;-34
2022/12/05 09:02:10;;;;;;;16.70;13.02;;;5.60;99.90;;;;;;4900758;28;89695;-33
2022/12/05 09:04:36;;;;;;;14.63;10.55;;;5.60;99.90;;;;;;4897334;28;88974;-34
2022/12/05 09:07:02;;;;;;;14.43;11.05;;;5.60;99.90;;;;;;4897610;28;89829;-32
2022/12/05 09:09:28;;;;;;;12.93;9.57;;;5.50;99.90;;;;;;4897436;28;90257;-34
2022/12/05 09:11:54;;;;;;;12.65;11.35;;;5.60;99.90;;;;;;4898637;28;89664;-33
2022/12/05 09:14:19;;;;;;;12.52;9.20;;;5.60;99.90;;;;;;4897039;28;87978;-33
2022/12/05 09:16:46;;;;;;;15.27;11.77;;;5.60;99.90;;;;;;4900959;28;90112;-33
2022/12/05 09:19:23;;;;;;;13.93;10.73;;;5.50;99.90;;;;;;4900794;28;90399;-33
2022/12/05 09:21:49;;;;;;;17.33;11.88;;;5.50;99.90;;;;;;4971665;23;89914;-34
2022/12/05 09:24:15;;;;;;;12.63;11.15;;;5.50;99.90;;;;;;4959532;28;88966;-34
2022/12/05 09:26:40;;;;;;;15.35;12.10;;;5.50;99.90;;;;;;4959374;28;90381;-33
2022/12/05 09:29:06;;;;;;;16.23;13.95;;;5.50;99.90;;;;;;4958804;28;90137;-32
2022/12/05 09:31:32;;;;;;;19.77;12.18;;;5.50;99.90;;;;;;4958845;28;90267;-33
2022/12/05 09:33:58;;;;;;;14.82;11.65;;;5.50;99.90;;;;;;4958740;28;88561;-33
2022/12/05 09:36:25;;;;;;;11.90;9.57;;;5.50;99.90;;;;;;4959248;28;89272;-36
2022/12/05 09:38:53;;;;;;;17.27;11.25;;;5.50;99.90;;;;;;4959846;28;89606;-33
2022/12/05 09:42:03;;;;;;;14.70;12.23;;;5.50;99.90;;;;;;4959360;28;89742;-32
2022/12/05 09:44:18;;;;;;;18.15;13.10;;;5.50;99.90;;;;;;4958923;28;89988;-35
2022/12/05 09:46:54;;;;;;;16.45;13.05;;;5.50;99.90;;;;;;4958333;28;90072;-35
2022/12/05 09:49:21;;;;;;;12.02;10.48;;;5.50;99.90;;;;;;4959406;28;90488;-31
2022/12/05 09:51:47;;;;;;;17.60;13.25;;;5.50;99.90;;;;;;4959179;28;89398;-32
2022/12/05 09:54:14;;;;;;;13.93;11.82;;;5.50;99.90;;;;;;4957560;28;88834;-32
2022/12/05 09:56:43;;;;;;;15.35;12.20;;;5.40;99.90;;;;;;4958603;28;90539;-33
2022/12/05 09:59:19;;;;;;;18.00;12.77;;;5.40;99.90;;;;;;4958798;28;89806;-31
2022/12/05 10:01:56;;;;;;;15.70;12.35;;;5.40;99.90;;;;;;4958738;28;91224;-34
2022/12/05 10:04:34;;;;;;;13.87;10.77;;;5.40;99.90;;;;;;4958714;28;89064;-32
2022/12/05 10:07:24;;;;;;;12.53;9.33;;;5.40;99.90;;;;;;4958238;28;90380;-31
2022/12/05 10:10:04;;;;;;;14.43;11.55;;;5.40;99.90;;;;;;4960304;28;89070;-32
2022/12/05 10:12:59;;;;;;;19.23;13.77;;;5.40;99.90;;;;;;4959038;28;89591;-31
2022/12/05 10:15:36;;;;;;;17.58;13.38;;;5.40;99.90;;;;;;4939913;28;88489;-32
2022/12/05 10:18:25;;;;;;;16.13;12.65;;;5.40;99.90;;;;;;4957034;28;90589;-33
2022/12/05 10:21:04;;;;;;;15.43;11.43;;;5.40;99.90;;;;;;4957520;28;90136;-33
2022/12/05 10:24:11;;;;;;;18.50;12.77;;;5.40;99.90;;;;;;4957026;28;90206;-34
2022/12/05 10:26:45;;;;;;;16.37;12.20;;;5.40;99.90;;;;;;4946770;28;87981;-32
2022/12/05 10:29:16;;;;;;;14.18;11.68;;;5.40;99.90;;;;;;4958339;28;89820;-32
2022/12/05 10:31:44;;;;;;;12.90;11.48;;;5.40;99.90;;;;;;4958565;28;88714;-31
2022/12/05 10:34:32;;;;;;;20.90;10.98;;;5.40;99.90;;;;;;4958457;28;89688;-31
2022/12/05 10:37:16;;;;;;;18.08;12.55;;;5.50;99.90;;;;;;4959187;28;88317;-32
2022/12/05 10:39:42;;;;;;;14.70;11.85;;;5.50;99.90;;;;;;4955967;28;90580;-34
2022/12/05 10:42:20;;;;;;;16.88;13.02;;;5.50;99.90;;;;;;4958422;28;90095;-33
2022/12/05 10:44:46;;;;;;;15.65;12.43;;;5.40;99.90;;;;;;4958154;28;89739;-34
2022/12/05 10:47:11;;;;;;;15.40;13.25;;;5.40;99.90;;;;;;4957398;28;89436;-33
2022/12/05 10:49:38;;;;;;;15.90;13.32;;;5.40;99.90;;;;;;4956867;28;90378;-34
2022/12/05 10:52:04;;;;;;;16.38;12.45;;;5.40;99.90;;;;;;4958211;28;89782;-34
2022/12/05 10:54:38;;;;;;;17.17;13.85;;;5.40;99.90;;;;;;4955500;28;89564;-34
2022/12/05 10:57:21;;;;;;;18.75;12.82;;;5.40;99.90;;;;;;4958714;28;88071;-33
2022/12/05 10:59:47;;;;;;;18.35;12.98;;;5.40;99.90;;;;;;4963900;28;90188;-33
2022/12/05 11:02:31;;;;;;;21.80;12.45;;;5.40;99.90;;;;;;4961721;28;90111;-32
2022/12/05 11:04:57;;;;;;;17.50;12.40;;;5.30;99.90;;;;;;4963671;28;89487;-33
2022/12/05 11:07:34;;;;;;;16.63;12.00;;;5.30;99.90;;;;;;4956989;28;89310;-36
2022/12/05 11:10:01;;;;;;;16.08;11.57;;;5.40;99.90;;;;;;4947596;28;90292;-33
2022/12/05 11:12:33;;;;;;;15.17;11.70;;;5.40;99.90;;;;;;4956687;28;90482;-33
2022/12/05 11:15:02;;;;;;;13.43;10.23;;;5.40;99.90;;;;;;4958267;28;90751;-33
2022/12/05 11:17:37;;;;;;;13.85;11.95;;;5.40;99.90;;;;;;4957917;28;88398;-34
2022/12/05 11:20:22;;;;;;;15.43;11.45;;;5.40;99.90;;;;;;4959658;28;89843;-33
2022/12/05 11:22:53;;;;;;;14.10;11.13;;;5.40;99.90;;;;;;4960151;28;90005;-31
2022/12/05 11:25:27;;;;;;;16.58;11.15;;;5.40;99.90;;;;;;4958623;28;89206;-32
2022/12/05 11:27:54;;;;;;;12.73;10.90;;;5.40;99.90;;;;;;4957360;28;88452;-33
2022/12/05 11:30:23;;;;;;;19.55;12.90;;;5.40;99.90;;;;;;4957203;28;90148;-33
2022/12/05 11:32:49;;;;;;;;;;;5.40;99.90;;;;;;4957864;28;90156;-35
2022/12/05 11:35:14;;;;;;;15.38;11.40;;;5.40;99.90;;;;;;4961178;28;88812;-33
2022/12/05 11:37:48;;;;;;;15.60;11.88;;;5.40;99.90;;;;;;4956306;28;88990;-32
2022/12/05 11:40:53;;;;;;;16.85;10.50;;;5.40;99.90;;;;;;4950324;28;90757;-32
2022/12/05 11:43:33;;;;;;;16.13;10.98;;;5.40;99.90;;;;;;4941705;28;89475;-33
2022/12/05 11:46:06;;;;;;;17.50;12.45;;;5.40;99.90;;;;;;4961537;28;89649;-32
2022/12/05 11:48:34;;;;;;;13.60;10.98;;;5.40;99.90;;;;;;4962982;28;88641;-34
2022/12/05 11:51:31;;;;;;;17.00;12.15;;;5.40;99.90;;;;;;4960650;28;90115;-34
2022/12/05 11:54:49;;;;;;;13.85;11.18;;;5.40;99.90;;;;;;4956126;28;90760;-33
2022/12/05 11:57:20;;;;;;;;;;;5.40;99.90;;;;;;4932717;28;89041;-32
2022/12/05 12:00:12;;;;;;;16.50;10.00;;;5.50;99.90;;;;;;4957202;28;89067;-32
2022/12/05 12:02:53;;;;;;;11.60;9.75;;;5.40;99.90;;;;;;4957106;28;90199;-33
2022/12/05 12:05:33;;;;;;;15.93;11.02;;;5.40;99.90;;;;;;4962769;28;89552;-32
2022/12/05 12:08:25;;;;;;;8.48;6.57;;;5.40;99.90;;;;;;4957155;28;90318;-31
2022/12/05 12:11:23;;;;;;;12.65;8.35;;;5.40;99.90;;;;;;4962131;28;88992;-33
2022/12/05 12:14:26;;;;;;;10.45;8.30;;;5.40;99.90;;;;;;4961769;28;90784;-32
2022/12/05 12:17:06;;;;;;;9.95;8.98;;;5.40;99.90;;;;;;4963405;28;89832;-33
2022/12/05 12:19:59;;;;;;;10.95;7.20;;;5.50;99.90;;;;;;4961510;28;89363;-33
2022/12/05 12:22:33;;;;;;;8.13;6.68;;;5.40;99.90;;;;;;4962027;28;89209;-32
2022/12/05 12:25:14;;;;;;;9.10;7.32;;;5.40;99.90;;;;;;4963743;28;89681;-31
2022/12/05 12:27:45;;;;;;;9.48;6.85;;;5.40;99.90;;;;;;4958658;28;89969;-32
2022/12/05 12:30:23;;;;;;;12.18;7.10;;;5.40;99.90;;;;;;4958462;28;89608;-34
2022/12/05 12:33:04;;;;;;;9.40;7.32;;;5.40;99.90;;;;;;4959167;28;88352;-32
2022/12/05 12:35:30;;;;;;;10.98;7.05;;;5.40;99.90;;;;;;4959047;28;90344;-33
2022/12/05 12:38:23;;;;;;;8.65;6.22;;;5.40;99.90;;;;;;4959705;28;89717;-33
2022/12/05 12:40:52;;;;;;;9.30;7.03;;;5.40;99.90;;;;;;4958679;28;89217;-31
2022/12/05 12:43:32;;;;;;;10.65;7.18;;;5.40;99.90;;;;;;4959919;28;90229;-32
2022/12/05 12:46:11;;;;;;;7.97;5.97;;;5.40;99.90;;;;;;4959069;28;90224;-31
2022/12/05 12:48:40;;;;;;;9.38;6.97;;;5.40;99.90;;;;;;4958989;28;89879;-33
2022/12/05 12:51:12;;;;;;;5.88;5.15;;;5.40;99.90;;;;;;4961240;28;89359;-34
2022/12/05 12:54:05;;;;;;;6.97;5.78;;;5.50;99.90;;;;;;4962372;28;89088;-33
2022/12/05 12:56:45;;;;;;;7.82;6.00;;;5.40;99.90;;;;;;4962474;28;90424;-35
2022/12/05 12:59:25;;;;;;;7.65;6.13;;;5.40;99.90;;;;;;4962067;28;90461;-31
2022/12/05 13:02:21;;;;;;;7.75;5.00;;;5.40;99.90;;;;;;4962826;28;90451;-33
2022/12/05 13:04:49;;;;;;;7.53;5.90;;;5.40;99.90;;;;;;4962607;28;89754;-33
2022/12/05 13:07:21;;;;;;;7.45;5.30;;;5.50;99.90;;;;;;4962998;28;90136;-31